Time;durP1;ratioP1;P1;durP2;ratioP2;P2;SDS_P1;SDS_P2;PMS_P1;PMS_P2;Temp;Humidity;BMP_temperature;BMP_pressure;BME280_temperature;BME280_humidity;BME280_pressure;Samples;Min_cycle;Max_cycle;Signal;HPM_P1;HPM_P2
2022/05/06 00:01:00;;;;;;;15.98;10.90;;;;;;;16.20;64.63;101615.13;5052409;28;20375;-84
2022/05/06 00:03:26;;;;;;;20.98;10.70;;;;;;;16.35;64.67;101615.78;5052252;28;20031;-84
2022/05/06 00:05:51;;;;;;;21.17;11.93;;;;;;;16.31;64.32;101614.31;5050735;28;20464;-84
2022/05/06 00:08:17;;;;;;;16.70;11.00;;;;;;;16.32;64.16;101616.88;5051983;28;20021;-84
2022/05/06 00:10:43;;;;;;;21.42;11.07;;;;;;;16.06;65.37;101616.97;5052068;28;20053;-84
2022/05/06 00:13:08;;;;;;;17.35;10.63;;;;;;;16.16;64.92;101622.44;5052096;28;20416;-84
2022/05/06 00:15:35;;;;;;;14.60;9.32;;;;;;;16.16;65.13;101614.50;5052199;28;20067;-84
2022/05/06 00:18:00;;;;;;;21.45;10.43;;;;;;;16.33;65.03;101612.41;5051952;28;20033;-84
2022/05/06 00:20:26;;;;;;;25.58;10.10;;;;;;;16.40;64.44;101608.38;5051747;28;20429;-84
2022/05/06 00:22:51;;;;;;;17.70;9.82;;;;;;;16.18;64.58;101601.97;5051928;28;20102;-84
2022/05/06 00:25:16;;;;;;;15.02;9.68;;;;;;;16.37;64.12;101608.56;5052163;28;20027;-84
2022/05/06 00:27:42;;;;;;;19.40;9.40;;;;;;;16.16;64.84;101606.53;5051964;28;20467;-84
2022/05/06 00:30:08;;;;;;;15.35;9.90;;;;;;;16.42;63.82;101607.28;5051663;28;20025;-84
2022/05/06 00:32:34;;;;;;;14.48;8.77;;;;;;;16.45;64.00;101607.06;5051820;28;20013;-84
2022/05/06 00:34:59;;;;;;;14.00;9.13;;;;;;;16.43;64.33;101605.50;5051616;28;20472;-85
2022/05/06 00:37:24;;;;;;;15.15;8.80;;;;;;;16.51;63.89;101605.78;5051784;28;20499;-84
2022/05/06 00:39:50;;;;;;;15.60;9.57;;;;;;;16.36;64.13;101601.59;5051765;28;20467;-84
2022/05/06 00:42:16;;;;;;;13.60;8.63;;;;;;;16.54;63.88;101607.34;5051771;28;20525;-82
2022/05/06 00:44:42;;;;;;;18.40;9.25;;;;;;;16.54;64.03;101605.53;5051603;28;20053;-84
2022/05/06 00:47:09;;;;;;;12.85;8.32;;;;;;;16.55;63.74;101601.09;5053465;28;20021;-82
2022/05/06 00:49:37;;;;;;;16.38;8.35;;;;;;;16.59;63.55;101600.75;5055873;28;20025;-82
2022/05/06 00:52:04;;;;;;;12.05;7.68;;;;;;;16.51;64.04;101604.91;5055749;28;20028;-82
2022/05/06 00:54:31;;;;;;;12.85;8.23;;;;;;;16.39;64.17;101607.53;5055745;28;20225;-82
2022/05/06 00:56:57;;;;;;;14.70;7.60;;;;;;;16.38;63.97;101605.81;5055756;28;20116;-82
2022/05/06 00:59:22;;;;;;;12.18;7.97;;;;;;;16.49;63.27;101602.41;5055616;28;20104;-82
2022/05/06 01:01:48;;;;;;;13.90;7.32;;;;;;;16.61;63.11;101606.78;5055519;28;20025;-83
2022/05/06 01:04:17;;;;;;;12.55;7.28;;;;;;;16.74;62.79;101604.03;5055405;28;20089;-83
2022/05/06 01:06:43;;;;;;;10.65;6.55;;;;;;;16.57;62.84;101600.00;5055840;28;20025;-82
2022/05/06 01:09:14;;;;;;;12.90;6.07;;;;;;;16.53;62.65;101609.16;5055492;28;20028;-83
2022/05/06 01:11:39;;;;;;;12.50;6.78;;;;;;;16.36;62.85;101598.94;5055442;28;20025;-83
2022/05/06 01:14:04;;;;;;;9.07;6.05;;;;;;;16.44;62.55;101602.72;5055381;28;20427;-83
2022/05/06 01:16:37;;;;;;;11.70;6.28;;;;;;;16.39;62.83;101601.34;5055064;28;20474;-83
2022/05/06 01:19:04;;;;;;;9.38;5.57;;;;;;;16.14;63.09;101603.16;5055195;28;20025;-83
2022/05/06 01:21:34;;;;;;;9.73;5.72;;;;;;;15.88;64.02;101597.09;5055075;28;20092;-83
2022/05/06 01:24:00;;;;;;;10.63;5.30;;;;;;;16.21;62.98;101599.13;5055195;28;20074;-83
2022/05/06 01:26:53;;;;;;;7.25;5.65;;;;;;;16.28;62.90;101601.31;5055122;28;20024;-83
2022/05/06 01:29:21;;;;;;;10.25;5.78;;;;;;;16.37;62.44;101600.63;5055005;28;20479;-83
2022/05/06 01:31:46;;;;;;;9.40;5.40;;;;;;;16.10;62.74;101596.38;5054964;28;20021;-83
2022/05/06 01:34:15;;;;;;;11.25;5.93;;;;;;;15.99;63.01;101588.38;5054981;28;20036;-83
2022/05/06 01:36:41;;;;;;;9.32;5.28;;;;;;;16.12;62.49;101588.34;5054934;28;20360;-82
2022/05/06 01:39:11;;;;;;;5.47;4.90;;;;;;;16.20;62.33;101586.81;5055112;28;20017;-83
2022/05/06 01:41:38;;;;;;;11.75;5.50;;;;;;;16.13;62.33;101598.81;5054710;28;20013;-83
2022/05/06 01:44:07;;;;;;;7.35;5.68;;;;;;;16.07;62.41;101586.00;5054827;28;20052;-83
2022/05/06 01:46:35;;;;;;;9.23;5.63;;;;;;;16.19;62.29;101593.09;5054825;28;20501;-83
2022/05/06 01:49:02;;;;;;;11.45;6.47;;;;;;;16.10;62.24;101592.91;5053567;28;20025;-84
2022/05/06 01:51:29;;;;;;;8.73;5.90;;;;;;;15.88;62.59;101601.53;5054469;28;20130;-83
2022/05/06 01:53:55;;;;;;;6.65;5.55;;;;;;;15.72;63.02;101605.25;5054542;28;20110;-82
2022/05/06 01:56:20;;;;;;;8.90;5.25;;;;;;;15.84;62.60;101603.56;5054549;28;20502;-84
2022/05/06 01:58:47;;;;;;;8.57;5.32;;;;;;;16.07;62.04;101612.50;5054149;28;20025;-84
2022/05/06 02:01:12;;;;;;;13.35;6.75;;;;;;;15.77;62.70;101616.38;5054462;28;20057;-83
2022/05/06 02:06:21;;;;;;;10.75;6.10;;;;;;;16.02;61.94;101604.88;5054701;28;20032;-84
2022/05/06 02:08:47;;;;;;;13.30;6.28;;;;;;;15.86;62.34;101609.59;5054386;28;20025;-84
2022/05/06 02:11:13;;;;;;;13.43;7.00;;;;;;;15.86;62.20;101604.31;5054235;28;20036;-84
2022/05/06 02:13:39;;;;;;;10.10;6.80;;;;;;;16.03;61.89;101596.00;5054441;28;20063;-82
2022/05/06 02:16:04;;;;;;;9.10;6.45;;;;;;;16.04;61.69;101597.69;5054104;28;20120;-84
2022/05/06 02:18:30;;;;;;;16.40;7.85;;;;;;;15.93;61.82;101599.41;5052825;28;20082;-83
2022/05/06 02:20:56;;;;;;;8.50;6.82;;;;;;;15.85;62.22;101598.13;5054595;28;20025;-83
2022/05/06 02:23:22;;;;;;;11.18;6.53;;;;;;;15.88;62.12;101601.53;5054024;28;20025;-82
2022/05/06 02:25:48;;;;;;;9.88;7.07;;;;;;;15.90;62.10;101600.47;5053838;28;20115;-82
2022/05/06 02:28:14;;;;;;;8.73;6.70;;;;;;;15.99;61.70;101604.25;5052701;28;20057;-83
2022/05/06 02:33:37;;;;;;;9.82;7.53;;;;;;;15.80;62.48;101610.88;5063622;28;20045;-83
2022/05/06 02:36:03;;;;;;;12.48;7.70;;;;;;;15.86;62.36;101614.91;5053800;28;20494;-82
2022/05/06 02:38:28;;;;;;;12.10;7.93;;;;;;;16.01;62.15;101607.66;5053685;28;20017;-82
2022/05/06 02:40:55;;;;;;;10.85;7.53;;;;;;;16.15;61.79;101617.25;5053690;28;20044;-82
2022/05/06 02:43:21;;;;;;;10.80;8.50;;;;;;;15.97;62.40;101606.16;5053775;28;20025;-82
2022/05/06 02:45:46;;;;;;;10.68;8.25;;;;;;;15.96;62.08;101604.50;5053700;28;20029;-82
2022/05/06 02:48:12;;;;;;;11.05;7.93;;;;;;;16.06;62.01;101594.94;5053789;28;20080;-82
2022/05/06 02:50:38;;;;;;;14.32;9.00;;;;;;;16.11;61.99;101591.94;5053483;28;20028;-82
2022/05/06 02:53:04;;;;;;;11.15;8.25;;;;;;;16.16;61.54;101588.00;5053701;28;20290;-82
2022/05/06 02:55:31;;;;;;;10.68;8.10;;;;;;;16.08;61.40;101579.75;5053535;28;20024;-82
2022/05/06 02:57:56;;;;;;;9.77;7.63;;;;;;;16.02;61.88;101582.84;5052134;28;20036;-82
2022/05/06 03:00:22;;;;;;;11.95;8.20;;;;;;;15.93;62.22;101584.34;5053502;28;20479;-84
2022/05/06 03:02:47;;;;;;;11.15;7.63;;;;;;;15.78;62.69;101591.59;5053190;28;20029;-82
2022/05/06 03:05:13;;;;;;;10.65;7.30;;;;;;;15.86;62.48;101589.25;5053083;28;20025;-84
2022/05/06 03:07:39;;;;;;;8.45;6.43;;;;;;;15.97;61.97;101588.47;5053299;28;20104;-83
2022/05/06 03:10:04;;;;;;;10.75;7.47;;;;;;;15.74;62.31;101590.13;5052286;28;20058;-82
2022/05/06 03:12:31;;;;;;;9.30;6.68;;;;;;;15.88;61.86;101585.63;5051761;28;20025;-84
2022/05/06 03:14:57;;;;;;;11.60;7.13;;;;;;;15.75;62.12;101590.97;5051724;28;20021;-82
2022/05/06 03:17:23;;;;;;;6.95;5.65;;;;;;;15.80;62.30;101578.25;5052782;28;20028;-82
2022/05/06 03:19:48;;;;;;;8.18;6.28;;;;;;;15.76;62.36;101582.09;5052909;28;20035;-82
2022/05/06 03:22:16;;;;;;;11.23;6.47;;;;;;;15.70;62.50;101583.34;5052955;28;20028;-84
2022/05/06 03:24:42;;;;;;;7.20;6.00;;;;;;;15.81;61.56;101582.59;5053064;28;20024;-82
2022/05/06 03:27:59;;;;;;;9.32;6.78;;;;;;;15.89;61.49;101587.34;5052852;28;20399;-82
2022/05/06 03:29:56;;;;;;;9.73;6.43;;;;;;;15.72;61.34;101578.78;5052705;28;20037;-82
2022/05/06 03:32:22;;;;;;;10.45;6.90;;;;;;;15.55;62.07;101584.41;5052452;28;20376;-82
2022/05/06 03:34:48;;;;;;;10.90;5.55;;;;;;;15.50;62.10;101573.28;5051391;28;20539;-83
2022/05/06 03:37:14;;;;;;;8.35;6.22;;;;;;;15.68;61.62;101577.31;5052728;28;20037;-83
2022/05/06 03:39:39;;;;;;;10.27;6.95;;;;;;;15.74;61.69;101576.03;5052588;28;20399;-83
2022/05/06 03:42:04;;;;;;;7.97;6.35;;;;;;;15.61;62.10;101576.03;5052405;28;20071;-84
2022/05/06 03:44:30;;;;;;;9.57;7.22;;;;;;;15.58;62.04;101581.53;5052616;28;20107;-83
2022/05/06 03:46:55;;;;;;;8.70;6.18;;;;;;;15.51;62.04;101582.94;5053000;28;20025;-83
2022/05/06 03:49:20;;;;;;;10.98;6.82;;;;;;;15.40;62.39;101588.97;5052395;28;20104;-83
2022/05/06 03:51:47;;;;;;;10.75;6.82;;;;;;;15.36;62.65;101582.19;5052349;28;20028;-82
2022/05/06 03:54:13;;;;;;;13.48;7.07;;;;;;;15.41;62.20;101583.56;5052326;28;20017;-83
2022/05/06 03:56:38;;;;;;;8.27;6.38;;;;;;;15.59;62.02;101591.19;5052299;28;20498;-83
2022/05/06 03:59:04;;;;;;;9.50;5.90;;;;;;;15.59;61.83;101586.72;5052195;28;20032;-83
2022/05/06 04:01:30;;;;;;;9.98;5.90;;;;;;;15.69;61.72;101583.44;5052200;28;20110;-82
2022/05/06 04:03:56;;;;;;;13.05;6.53;;;;;;;15.32;62.80;101578.06;5052012;28;20065;-83
2022/05/06 04:06:21;;;;;;;8.35;4.60;;;;;;;15.38;61.91;101583.78;5052078;28;20513;-83
2022/05/06 04:08:46;;;;;;;7.70;4.72;;;;;;;15.22;62.12;101583.97;5052159;28;20487;-83
2022/05/06 04:11:13;;;;;;;9.57;5.20;;;;;;;15.23;62.38;101575.09;5051975;28;20112;-83
2022/05/06 04:13:39;;;;;;;6.60;5.13;;;;;;;15.29;62.63;101575.66;5051948;28;20084;-83
2022/05/06 04:16:05;;;;;;;7.97;5.07;;;;;;;15.34;62.33;101569.06;5051979;28;20033;-83
2022/05/06 04:18:31;;;;;;;6.20;4.95;;;;;;;15.55;61.57;101574.66;5052235;28;20025;-82
2022/05/06 04:23:40;;;;;;;6.93;4.53;;;;;;;15.59;61.32;101580.59;5051948;28;20407;-82
2022/05/06 04:26:08;;;;;;;8.43;4.57;;;;;;;15.33;62.48;101579.78;5051694;28;20021;-83
2022/05/06 04:28:34;;;;;;;10.75;5.78;;;;;;;15.53;61.82;101583.66;5051705;28;20112;-83
2022/05/06 04:31:00;;;;;;;8.90;4.47;;;;;;;15.65;61.76;101580.16;5051544;28;20025;-83
2022/05/06 04:33:26;;;;;;;13.95;5.18;;;;;;;15.51;61.45;101586.41;5051764;28;20102;-82
2022/05/06 04:35:53;;;;;;;6.22;4.90;;;;;;;15.34;62.33;101587.56;5051788;28;20036;-83
2022/05/06 04:38:19;;;;;;;6.68;4.32;;;;;;;15.23;62.64;101590.16;5051884;28;20029;-83
2022/05/06 04:40:44;;;;;;;5.10;4.15;;;;;;;15.62;61.32;101585.66;5051603;28;20037;-83
2022/05/06 04:43:10;;;;;;;6.00;4.65;;;;;;;15.56;61.47;101592.25;5051721;28;20405;-83
2022/05/06 04:45:40;;;;;;;6.10;4.10;;;;;;;15.37;62.27;101587.38;5050382;28;20037;-83
2022/05/06 04:48:07;;;;;;;5.90;4.55;;;;;;;15.43;61.88;101586.94;5051871;28;20098;-83
2022/05/06 04:50:34;;;;;;;6.47;4.20;;;;;;;15.27;62.00;101588.97;5050084;28;20065;-83
2022/05/06 04:53:01;;;;;;;6.85;4.10;;;;;;;15.44;61.82;101593.09;5045604;28;20035;-83
2022/05/06 04:55:26;;;;;;;4.55;3.40;;;;;;;15.60;61.00;101593.72;5051048;28;20387;-83
2022/05/06 04:57:52;;;;;;;5.90;3.95;;;;;;;15.68;60.73;101595.84;5051653;28;20025;-83
2022/05/06 05:00:18;;;;;;;8.40;3.80;;;;;;;15.44;61.52;101593.94;5048681;28;20030;-83
2022/05/06 05:02:44;;;;;;;6.53;3.28;;;;;;;15.27;61.92;101588.97;5037899;28;20025;-83
2022/05/06 05:05:09;;;;;;;4.25;3.28;;;;;;;15.54;60.75;101588.88;5036450;28;20079;-83
2022/05/06 05:07:35;;;;;;;5.95;3.67;;;;;;;15.24;61.78;101591.81;5031540;28;20373;-83
2022/05/06 05:10:00;;;;;;;4.28;3.15;;;;;;;15.04;62.41;101599.31;5032582;28;20021;-83
2022/05/06 05:12:25;;;;;;;6.50;3.75;;;;;;;14.96;62.78;101611.38;5040415;28;20021;-84
2022/05/06 05:14:51;;;;;;;5.13;3.42;;;;;;;14.72;63.70;101614.69;5042493;28;20112;-83
2022/05/06 05:17:17;;;;;;;6.63;3.80;;;;;;;15.13;62.26;101610.25;5037117;28;20112;-82
2022/05/06 05:19:43;;;;;;;6.25;3.97;;;;;;;15.27;61.50;101623.38;5047211;28;20030;-83
2022/05/06 05:22:09;;;;;;;4.72;3.58;;;;;;;15.53;61.05;101620.72;5038993;28;20026;-83
2022/05/06 05:24:34;;;;;;;6.50;3.75;;;;;;;15.57;60.67;101606.31;5049203;28;20029;-83
2022/05/06 05:27:00;;;;;;;5.32;4.00;;;;;;;15.55;60.93;101610.88;5050420;28;20100;-83
2022/05/06 05:29:25;;;;;;;4.88;3.88;;;;;;;15.24;61.38;101597.09;5034853;28;20065;-83
2022/05/06 05:31:51;;;;;;;6.65;3.53;;;;;;;15.31;61.29;101603.69;5039275;28;20137;-83
2022/05/06 05:34:17;;;;;;;7.60;3.60;;;;;;;15.42;60.98;101606.44;5038731;28;20025;-83
2022/05/06 05:36:42;;;;;;;9.25;3.70;;;;;;;15.24;61.39;101608.56;5037113;28;20365;-83
2022/05/06 05:39:07;;;;;;;7.88;3.50;;;;;;;15.74;60.95;101613.97;5040595;28;20124;-83
2022/05/06 05:41:33;;;;;;;6.13;3.42;;;;;;;15.56;60.34;101623.16;5034754;28;20033;-83
2022/05/06 05:49:27;;;;;;;7.68;3.63;;;;;;;15.82;60.49;101624.03;5034738;28;20033;-83
2022/05/06 05:51:52;;;;;;;4.05;3.35;;;;;;;15.91;59.92;101622.50;5033349;28;20022;-83
2022/05/06 05:54:17;;;;;;;6.32;3.55;;;;;;;15.95;60.17;101629.28;5034566;28;20041;-83
2022/05/06 05:56:43;;;;;;;6.63;3.20;;;;;;;15.77;59.87;101626.13;5034442;28;20111;-83
2022/05/06 05:59:08;;;;;;;3.85;2.95;;;;;;;15.36;60.86;101625.38;5034486;28;20044;-83
2022/05/06 06:01:33;;;;;;;12.60;3.70;;;;;;;15.74;59.62;101626.34;5034381;28;20586;-83
2022/05/06 06:03:59;;;;;;;6.32;2.92;;;;;;;15.73;59.60;101614.91;5038357;28;20030;-83
2022/05/06 06:06:25;;;;;;;5.03;3.38;;;;;;;15.76;60.11;101620.00;5034291;28;20029;-83
2022/05/06 06:08:50;;;;;;;7.53;3.35;;;;;;;15.83;59.80;101631.84;5034395;28;20033;-83
2022/05/06 06:11:17;;;;;;;5.25;2.72;;;;;;;15.45;60.15;101611.50;5034239;28;20037;-83
2022/05/06 06:13:43;;;;;;;6.65;3.30;;;;;;;15.62;59.88;101622.72;5051429;28;20044;-83
2022/05/06 06:16:08;;;;;;;4.57;2.80;;;;;;;15.62;60.01;101617.41;5054061;28;20104;-83
2022/05/06 06:18:33;;;;;;;4.63;2.75;;;;;;;15.74;59.70;101615.75;5053470;28;20386;-83
2022/05/06 06:20:59;;;;;;;6.75;3.10;;;;;;;15.77;59.69;101615.53;5052805;28;20444;-82
2022/05/06 06:23:24;;;;;;;8.13;3.63;;;;;;;15.78;59.85;101617.25;5052640;28;20111;-83
2022/05/06 06:25:50;;;;;;;4.53;2.95;;;;;;;15.65;59.55;101617.22;5047729;28;20116;-83
2022/05/06 06:28:16;;;;;;;7.32;2.70;;;;;;;15.71;59.55;101614.13;5044096;28;20042;-83
2022/05/06 06:30:41;;;;;;;3.78;3.10;;;;;;;15.95;59.32;101623.97;5037855;28;20124;-83
2022/05/06 06:33:07;;;;;;;7.88;2.70;;;;;;;16.10;59.10;101611.44;5040586;28;20025;-83
2022/05/06 06:35:33;;;;;;;7.50;3.35;;;;;;;16.00;58.59;101616.56;5044143;28;20356;-84
2022/05/06 06:37:58;;;;;;;4.07;2.53;;;;;;;16.19;58.17;101601.03;5041184;28;20032;-84
2022/05/06 06:40:24;;;;;;;6.32;2.60;;;;;;;16.35;57.64;101610.50;5053585;28;20025;-84
2022/05/06 06:42:49;;;;;;;10.15;3.13;;;;;;;16.55;57.58;101601.09;5049163;28;20016;-84
2022/05/06 06:45:15;;;;;;;5.75;2.50;;;;;;;16.60;57.42;101614.84;5052472;28;20449;-84
2022/05/06 06:47:41;;;;;;;3.15;2.28;;;;;;;16.76;57.21;101610.06;5052775;28;20021;-83
2022/05/06 06:50:07;;;;;;;5.10;2.55;;;;;;;16.97;56.82;101612.13;5052004;28;20025;-83
2022/05/06 06:52:32;;;;;;;7.57;2.60;;;;;;;16.68;56.61;101617.75;5053089;28;20029;-83
2022/05/06 06:54:58;;;;;;;6.60;2.33;;;;;;;16.89;56.43;101625.13;5039541;28;20025;-82
2022/05/06 06:57:26;;;;;;;7.25;2.90;;;;;;;17.11;55.03;101624.34;5042120;28;20121;-83
2022/05/06 06:59:51;;;;;;;4.95;2.65;;;;;;;16.96;55.31;101621.91;5045678;28;20029;-82
2022/05/06 07:02:16;;;;;;;3.67;2.13;;;;;;;16.76;56.11;101628.63;5038075;28;20017;-83
2022/05/06 07:04:42;;;;;;;5.10;2.50;;;;;;;17.01;55.83;101622.38;5037707;28;20479;-83
2022/05/06 07:12:35;;;;;;;3.72;2.60;;;;;;;17.13;55.93;101622.41;5046227;28;20583;-83
2022/05/06 07:15:02;;;;;;;3.17;2.38;;;;;;;17.03;56.05;101623.09;5048474;28;20033;-84
2022/05/06 07:17:28;;;;;;;2.70;2.00;;;;;;;17.08;56.11;101624.56;5033101;28;20179;-84
2022/05/06 07:19:53;;;;;;;6.28;2.03;;;;;;;17.13;54.67;101628.56;5038975;28;20388;-83
2022/05/06 07:22:19;;;;;;;3.00;2.30;;;;;;;17.55;53.94;101625.34;5047490;28;20214;-84
2022/05/06 07:24:44;;;;;;;2.25;2.00;;;;;;;17.63;53.98;101614.97;5031427;28;20033;-84
2022/05/06 07:27:09;;;;;;;3.88;1.92;;;;;;;17.56;53.84;101624.41;5033521;28;20022;-84
2022/05/06 07:29:35;;;;;;;3.60;2.17;;;;;;;18.31;52.59;101617.59;5036769;28;20513;-83
2022/05/06 07:32:00;;;;;;;4.47;2.15;;;;;;;18.88;51.12;101608.44;5034266;28;20515;-84
2022/05/06 07:34:26;;;;;;;5.25;2.80;;;;;;;18.75;50.94;101603.28;5049184;28;20032;-84
2022/05/06 07:36:51;;;;;;;4.45;2.60;;;;;;;19.38;49.14;101610.44;5052745;28;20108;-84
2022/05/06 07:39:17;;;;;;;3.45;2.15;;;;;;;19.40;49.22;101614.63;5051124;28;20067;-83
2022/05/06 07:41:43;;;;;;;6.07;2.00;;;;;;;19.59;49.56;101618.41;5052514;28;20486;-83
2022/05/06 07:44:09;;;;;;;5.00;2.22;;;;;;;19.57;49.37;101607.88;5050786;28;20093;-83
2022/05/06 07:46:35;;;;;;;3.90;2.28;;;;;;;20.06;47.89;101608.03;5051742;28;20036;-83
2022/05/06 07:49:02;;;;;;;8.00;2.58;;;;;;;20.70;46.86;101613.91;5052624;28;20540;-84
2022/05/06 07:51:28;;;;;;;3.97;2.22;;;;;;;19.81;48.16;101618.22;5051162;28;20037;-83
2022/05/06 07:53:55;;;;;;;4.60;2.47;;;;;;;20.79;46.53;101605.91;5050818;28;20024;-84
2022/05/06 07:56:25;;;;;;;7.07;2.33;;;;;;;22.17;43.45;101597.22;5050697;28;20094;-84
2022/05/06 07:58:51;;;;;;;3.08;2.40;;;;;;;22.56;42.70;101594.28;5052171;28;20032;-84
2022/05/06 08:01:17;;;;;;;5.55;2.45;;;;;;;22.00;42.65;101600.75;5052259;28;20414;-83
2022/05/06 08:06:26;;;;;;;5.80;2.15;;;;;;;22.77;42.54;101606.53;5052250;28;20040;-83
2022/05/06 08:08:52;;;;;;;5.05;2.55;;;;;;;24.19;39.78;101602.59;5052147;28;20407;-83
2022/05/06 08:11:17;;;;;;;3.55;1.77;;;;;;;24.13;39.85;101599.56;5051939;28;20029;-83
2022/05/06 08:13:44;;;;;;;4.38;1.88;;;;;;;23.25;40.79;101594.50;5052078;28;20024;-83
2022/05/06 08:16:09;;;;;;;5.07;1.83;;;;;;;24.38;39.24;101594.22;5051904;28;20032;-83
2022/05/06 08:18:35;;;;;;;3.20;1.42;;;;;;;24.00;40.21;101593.00;5052065;28;20040;-83
2022/05/06 08:21:00;;;;;;;2.60;1.65;;;;;;;23.49;40.55;101592.94;5051946;28;20029;-83
2022/05/06 08:23:26;;;;;;;5.55;1.58;;;;;;;21.86;42.74;101587.84;5051959;28;20049;-83
2022/05/06 08:25:52;;;;;;;1.88;1.13;;;;;;;22.53;42.24;101586.59;5051827;28;20025;-83
2022/05/06 08:28:19;;;;;;;6.28;1.90;;;;;;;22.76;41.40;101578.88;5051034;28;20410;-83
2022/05/06 08:30:46;;;;;;;3.60;1.70;;;;;;;23.93;40.05;101571.34;5051766;28;20056;-83
2022/05/06 08:33:12;;;;;;;4.75;1.80;;;;;;;24.57;37.93;101576.19;5050788;28;20025;-83
2022/05/06 08:35:37;;;;;;;2.13;1.48;;;;;;;24.34;39.65;101590.22;5051850;28;20020;-83
2022/05/06 08:38:02;;;;;;;3.60;1.65;;;;;;;24.45;39.02;101597.13;5050680;28;20028;-84
2022/05/06 08:40:31;;;;;;;3.00;1.65;;;;;;;23.96;39.38;101587.13;5051525;28;20057;-83
2022/05/06 08:42:57;;;;;;;2.97;1.45;;;;;;;24.41;39.11;101588.56;5050512;28;20407;-83
2022/05/06 08:50:59;;;;;;;4.10;1.63;;;;;;;23.68;39.89;101584.66;5051199;28;20087;-83
2022/05/06 08:53:28;;;;;;;4.80;1.30;;;;;;;24.13;39.65;101583.47;5051502;28;20086;-84
2022/05/06 08:55:55;;;;;;;4.20;1.90;;;;;;;24.19;39.93;101589.16;5051493;28;20029;-83
2022/05/06 08:58:22;;;;;;;6.57;1.63;;;;;;;23.93;39.82;101587.44;5051429;28;20021;-83
2022/05/06 09:00:48;;;;;;;2.28;1.42;;;;;;;23.52;40.35;101595.31;5050173;28;20060;-83
2022/05/06 09:03:15;;;;;;;5.25;1.40;;;;;;;23.89;40.16;101586.09;5051687;28;20025;-83
2022/05/06 09:05:54;;;;;;;7.38;1.90;;;;;;;23.42;40.59;101576.66;5050153;28;20033;-83
2022/05/06 09:08:20;;;;;;;4.18;1.58;;;;;;;24.20;39.35;101594.38;5053391;28;20399;-84
2022/05/06 09:10:58;;;;;;;4.13;1.67;;;;;;;24.30;39.43;101583.50;5055436;28;20021;-83
2022/05/06 09:13:25;;;;;;;5.22;2.72;;;;;;;23.81;39.67;101578.84;5055454;28;20471;-83
2022/05/06 09:18:37;;;;;;;5.13;1.60;;;;;;;24.33;39.47;101578.63;5055333;28;20027;-83
2022/05/06 09:21:10;;;;;;;3.35;1.63;;;;;;;25.41;37.63;101579.41;5055351;28;20034;-83
2022/05/06 09:23:35;;;;;;;5.85;2.40;;;;;;;24.82;38.41;101580.53;5055494;28;20039;-83
2022/05/06 09:26:01;;;;;;;3.80;1.58;;;;;;;25.63;37.40;101581.34;5055239;28;20021;-83
2022/05/06 09:28:28;;;;;;;3.03;2.13;;;;;;;24.79;38.00;101583.53;5054992;28;20383;-83
2022/05/06 09:30:59;;;;;;;5.72;2.42;;;;;;;24.46;39.03;101588.88;5055139;28;20013;-83
2022/05/06 09:33:25;;;;;;;4.13;1.45;;;;;;;24.60;39.20;101582.03;5054023;28;20391;-83
2022/05/06 09:35:51;;;;;;;2.45;1.10;;;;;;;25.03;38.31;101569.22;5054931;28;20476;-83
2022/05/06 09:38:16;;;;;;;4.75;1.50;;;;;;;25.99;37.01;101571.91;5054848;28;20041;-83
2022/05/06 09:40:42;;;;;;;3.55;1.35;;;;;;;26.10;37.27;101576.91;5054854;28;20471;-83
2022/05/06 09:43:16;;;;;;;3.33;1.10;;;;;;;27.10;35.39;101565.13;5054960;28;20029;-83
2022/05/06 09:45:43;;;;;;;3.70;1.20;;;;;;;27.48;34.41;101563.19;5054793;28;20082;-83
2022/05/06 09:48:10;;;;;;;2.25;1.27;;;;;;;26.96;34.97;101582.97;5054732;28;20025;-83
2022/05/06 09:50:44;;;;;;;3.13;1.23;;;;;;;27.68;33.77;101581.50;5053426;28;20040;-83
2022/05/06 09:53:15;;;;;;;2.90;1.30;;;;;;;27.34;34.78;101579.41;5054641;28;20383;-83
2022/05/06 09:55:44;;;;;;;2.40;1.38;;;;;;;27.54;34.23;101577.78;5054484;28;20391;-83
2022/05/06 09:58:09;;;;;;;3.45;1.13;;;;;;;27.96;34.08;101583.50;5054628;28;20033;-83
2022/05/06 10:00:38;;;;;;;2.15;1.23;;;;;;;28.07;33.59;101583.00;5054614;28;20368;-83
2022/05/06 10:03:04;;;;;;;2.47;1.48;;;;;;;27.42;33.80;101585.53;5054571;28;20108;-83
2022/05/06 10:05:31;;;;;;;1.42;1.10;;;;;;;26.44;35.96;101587.28;5054390;28;20021;-83
2022/05/06 10:08:00;;;;;;;2.05;1.30;;;;;;;26.91;35.63;101593.44;5054375;28;20032;-83
2022/05/06 10:10:33;;;;;;;3.78;1.58;;;;;;;26.68;35.62;101593.50;5054246;28;20021;-83
2022/05/06 10:13:03;;;;;;;3.95;1.17;;;;;;;25.64;36.99;101595.63;5054318;28;20032;-83
2022/05/06 10:15:30;;;;;;;4.90;1.23;;;;;;;25.08;37.89;101590.19;5054210;28;20098;-83
2022/05/06 10:17:56;;;;;;;3.05;1.10;;;;;;;25.42;37.87;101595.38;5052823;28;20479;-83
2022/05/06 10:20:33;;;;;;;3.38;1.23;;;;;;;25.55;38.01;101594.81;5054005;28;20025;-83
2022/05/06 10:23:04;;;;;;;2.78;1.10;;;;;;;24.20;40.23;101605.13;5054062;28;20040;-83
2022/05/06 10:26:00;;;;;;;0.57;0.57;;;;;;;24.24;39.95;101611.00;5053990;28;20025;-83
2022/05/06 10:34:14;;;;;;;0.90;0.70;;;;;;;25.37;38.33;101591.53;5053932;28;20453;-83
2022/05/06 10:36:43;;;;;;;5.40;0.63;;;;;;;27.42;35.88;101595.47;5054014;28;20064;-83
2022/05/06 10:39:19;;;;;;;3.17;0.55;;;;;;;25.84;37.13;101606.78;5053931;28;20418;-83
2022/05/06 10:42:03;;;;;;;4.10;1.35;;;;;;;25.47;38.17;101602.91;5053697;28;20028;-83
2022/05/06 10:44:48;;;;;;;2.85;0.93;;;;;;;26.27;36.64;101599.19;5052487;28;20048;-83
2022/05/06 10:47:16;;;;;;;1.95;1.00;;;;;;;25.52;37.89;101604.06;5053568;28;20056;-82
2022/05/06 10:49:43;;;;;;;1.85;0.93;;;;;;;24.89;39.28;101605.69;5053782;28;20037;-83
2022/05/06 10:52:18;;;;;;;0.80;0.60;;;;;;;23.85;41.13;101600.81;5053608;28;20087;-83
2022/05/06 10:54:44;;;;;;;4.68;1.30;;;;;;;23.82;42.07;101598.47;5053504;28;20021;-83
2022/05/06 10:57:10;;;;;;;1.67;0.65;;;;;;;23.38;42.67;101604.78;5053410;28;20021;-82
2022/05/06 10:59:54;;;;;;;0.90;0.40;;;;;;;23.49;42.65;101598.31;5053472;28;20398;-82
2022/05/06 11:02:28;;;;;;;1.13;0.40;;;;;;;23.16;42.68;101601.66;5051957;28;20032;-83
2022/05/06 11:04:56;;;;;;;1.25;0.40;;;;;;;23.25;43.20;101599.00;5053369;28;20021;-83
2022/05/06 11:07:22;;;;;;;2.10;0.63;;;;;;;22.93;43.95;101598.59;5053360;28;20136;-83
2022/05/06 11:09:48;;;;;;;2.95;0.90;;;;;;;23.00;44.24;101595.31;5053217;28;20491;-83
2022/05/06 11:12:39;;;;;;;3.00;0.95;;;;;;;23.36;43.04;101612.13;5043217;28;20030;-83
2022/05/06 11:15:07;;;;;;;0.85;0.68;;;;;;;23.05;43.34;101603.75;5052260;28;20364;-83
2022/05/06 11:17:33;;;;;;;1.38;0.68;;;;;;;22.62;44.00;101597.34;5051397;28;20037;-83
2022/05/06 11:20:00;;;;;;;1.02;0.47;;;;;;;22.47;44.70;101583.66;5034763;28;20030;-83
2022/05/06 11:22:26;;;;;;;1.80;0.40;;;;;;;22.88;43.90;101587.50;5037853;28;20021;-83
2022/05/06 11:24:56;;;;;;;3.88;0.80;;;;;;;22.29;44.96;101578.31;5044473;28;20456;-83
2022/05/06 11:27:21;;;;;;;1.38;0.68;;;;;;;23.59;42.75;101582.09;5038650;28;20116;-84
2022/05/06 11:29:58;;;;;;;1.88;0.70;;;;;;;23.94;42.08;101583.75;5037346;28;20586;-83
2022/05/06 11:32:25;;;;;;;1.23;0.80;;;;;;;24.09;42.05;101587.50;5036660;28;20028;-83
2022/05/06 11:35:09;;;;;;;5.72;0.63;;;;;;;23.68;42.50;101594.53;5045747;28;20029;-83
2022/05/06 11:37:39;;;;;;;0.50;0.32;;;;;;;23.81;42.46;101588.75;5031388;28;20391;-83
2022/05/06 11:40:32;;;;;;;2.05;0.43;;;;;;;23.86;42.36;101583.75;5044937;28;20045;-83
2022/05/06 11:43:20;;;;;;;1.83;0.47;;;;;;;23.89;42.47;101594.97;5043445;28;20072;-83
2022/05/06 11:48:47;;;;;;;2.28;1.58;;;;;;;23.40;43.24;101585.84;5032425;28;20084;-84
2022/05/06 11:51:18;;;;;;;1.88;0.60;;;;;;;22.95;43.99;101582.38;5032332;28;20030;-84
2022/05/06 11:53:44;;;;;;;4.88;0.90;;;;;;;22.85;43.79;101576.25;5032504;28;20060;-84
2022/05/06 11:56:10;;;;;;;3.58;0.75;;;;;;;23.16;43.42;101582.91;5032554;28;20029;-84
2022/05/06 11:58:36;;;;;;;0.93;0.40;;;;;;;23.37;42.79;101584.34;5035674;28;20040;-84
2022/05/06 12:01:02;;;;;;;1.88;0.50;;;;;;;23.33;44.00;101585.66;5052187;28;20033;-84